sensor_id;sensor_type;location;lat;lon;timestamp;pressure;altitude;pressure_sealevel;temperature;humidity
58367;BME280;57745;42.524;12.052;2023-12-07T00:01:09;96288.53;;;11.79;50.39
58367;BME280;57745;42.524;12.052;2023-12-07T00:03:35;96299.06;;;11.77;50.60
58367;BME280;57745;42.524;12.052;2023-12-07T00:06:01;96289.38;;;11.88;50.03
58367;BME280;57745;42.524;12.052;2023-12-07T00:08:26;96295.78;;;11.95;50.21
58367;BME280;57745;42.524;12.052;2023-12-07T00:10:52;96299.72;;;11.81;49.90
58367;BME280;57745;42.524;12.052;2023-12-07T00:13:17;96296.34;;;11.64;50.64
58367;BME280;57745;42.524;12.052;2023-12-07T00:15:43;96295.34;;;11.96;49.72
58367;BME280;57745;42.524;12.052;2023-12-07T00:18:08;96295.91;;;11.91;50.09
58367;BME280;57745;42.524;12.052;2023-12-07T00:20:34;96296.66;;;11.92;49.71
58367;BME280;57745;42.524;12.052;2023-12-07T00:22:59;96307.34;;;11.86;49.93
58367;BME280;57745;42.524;12.052;2023-12-07T00:25:25;96308.50;;;11.98;49.57
58367;BME280;57745;42.524;12.052;2023-12-07T00:27:50;96298.41;;;11.98;49.55
58367;BME280;57745;42.524;12.052;2023-12-07T00:30:16;96305.97;;;12.03;49.87
58367;BME280;57745;42.524;12.052;2023-12-07T00:32:42;96299.38;;;11.92;49.89
58367;BME280;57745;42.524;12.052;2023-12-07T00:35:09;96292.53;;;11.87;50.12
58367;BME280;57745;42.524;12.052;2023-12-07T00:37:35;96295.38;;;11.71;50.27
58367;BME280;57745;42.524;12.052;2023-12-07T00:40:01;96291.78;;;11.86;50.01
58367;BME280;57745;42.524;12.052;2023-12-07T00:42:27;96296.00;;;11.87;49.67
58367;BME280;57745;42.524;12.052;2023-12-07T00:44:52;96296.34;;;11.90;50.12
58367;BME280;57745;42.524;12.052;2023-12-07T00:47:18;96298.19;;;11.80;49.68
58367;BME280;57745;42.524;12.052;2023-12-07T00:49:43;96292.66;;;11.83;50.01
58367;BME280;57745;42.524;12.052;2023-12-07T00:52:09;96298.09;;;11.83;49.81
58367;BME280;57745;42.524;12.052;2023-12-07T00:54:34;96302.97;;;11.76;49.92
58367;BME280;57745;42.524;12.052;2023-12-07T00:57:00;96298.41;;;11.73;50.15
58367;BME280;57745;42.524;12.052;2023-12-07T00:59:25;96295.16;;;11.78;49.87
58367;BME280;57745;42.524;12.052;2023-12-07T01:01:50;96306.44;;;11.76;49.93
58367;BME280;57745;42.524;12.052;2023-12-07T01:04:16;96305.69;;;11.88;49.86
58367;BME280;57745;42.524;12.052;2023-12-07T01:06:43;96302.88;;;11.79;49.99
58367;BME280;57745;42.524;12.052;2023-12-07T01:09:08;96307.88;;;11.81;49.90
58367;BME280;57745;42.524;12.052;2023-12-07T01:11:39;96297.34;;;11.83;49.87
58367;BME280;57745;42.524;12.052;2023-12-07T01:14:07;96299.16;;;11.73;49.69
58367;BME280;57745;42.524;12.052;2023-12-07T01:16:32;96295.13;;;11.65;49.86
58367;BME280;57745;42.524;12.052;2023-12-07T01:18:58;96302.75;;;11.83;49.30
58367;BME280;57745;42.524;12.052;2023-12-07T01:21:23;96299.94;;;11.86;49.74
58367;BME280;57745;42.524;12.052;2023-12-07T01:23:49;96300.47;;;11.81;49.67
58367;BME280;57745;42.524;12.052;2023-12-07T01:26:14;96296.44;;;11.73;49.95
58367;BME280;57745;42.524;12.052;2023-12-07T01:28:40;96300.38;;;11.72;50.19
58367;BME280;57745;42.524;12.052;2023-12-07T01:31:05;96306.03;;;11.78;49.53
58367;BME280;57745;42.524;12.052;2023-12-07T01:33:31;96303.75;;;11.76;49.66
58367;BME280;57745;42.524;12.052;2023-12-07T01:35:56;96295.03;;;11.69;49.70
58367;BME280;57745;42.524;12.052;2023-12-07T01:38:22;96296.56;;;11.70;49.55
58367;BME280;57745;42.524;12.052;2023-12-07T01:40:48;96297.22;;;11.61;50.34
58367;BME280;57745;42.524;12.052;2023-12-07T01:43:13;96299.03;;;11.64;50.12
58367;BME280;57745;42.524;12.052;2023-12-07T01:45:39;96295.38;;;11.71;49.64
58367;BME280;57745;42.524;12.052;2023-12-07T01:48:04;96298.72;;;11.87;49.48
58367;BME280;57745;42.524;12.052;2023-12-07T01:50:31;96302.97;;;11.76;49.46
58367;BME280;57745;42.524;12.052;2023-12-07T01:53:01;96301.47;;;11.49;50.53
58367;BME280;57745;42.524;12.052;2023-12-07T01:55:27;96307.00;;;11.71;49.90
58367;BME280;57745;42.524;12.052;2023-12-07T01:57:55;96311.34;;;11.56;50.16
58367;BME280;57745;42.524;12.052;2023-12-07T02:00:21;96310.38;;;11.75;49.64
58367;BME280;57745;42.524;12.052;2023-12-07T02:02:47;96309.47;;;11.66;49.94
58367;BME280;57745;42.524;12.052;2023-12-07T02:05:13;96319.19;;;11.79;49.77
58367;BME280;57745;42.524;12.052;2023-12-07T02:07:42;96312.44;;;11.71;49.90
58367;BME280;57745;42.524;12.052;2023-12-07T02:10:09;96312.88;;;11.82;49.61
58367;BME280;57745;42.524;12.052;2023-12-07T02:12:35;96317.53;;;11.57;50.37
58367;BME280;57745;42.524;12.052;2023-12-07T02:15:02;96323.94;;;11.75;49.89
58367;BME280;57745;42.524;12.052;2023-12-07T02:17:45;96315.25;;;11.55;50.06
58367;BME280;57745;42.524;12.052;2023-12-07T02:23:03;96327.75;;;11.78;49.29
58367;BME280;57745;42.524;12.052;2023-12-07T02:25:35;96324.81;;;11.98;49.11
58367;BME280;57745;42.524;12.052;2023-12-07T02:28:02;96325.44;;;12.02;48.76
58367;BME280;57745;42.524;12.052;2023-12-07T02:30:28;96325.13;;;11.87;49.19
58367;BME280;57745;42.524;12.052;2023-12-07T02:32:53;96325.13;;;11.87;49.32
58367;BME280;57745;42.524;12.052;2023-12-07T02:35:19;96332.31;;;11.68;49.83
58367;BME280;57745;42.524;12.052;2023-12-07T02:37:48;96330.69;;;11.83;49.30
58367;BME280;57745;42.524;12.052;2023-12-07T02:40:17;96323.28;;;11.71;49.61
58367;BME280;57745;42.524;12.052;2023-12-07T02:42:44;96329.72;;;11.77;49.66
58367;BME280;57745;42.524;12.052;2023-12-07T02:45:10;96321.78;;;11.83;49.19
58367;BME280;57745;42.524;12.052;2023-12-07T02:47:37;96322.19;;;11.69;49.71
58367;BME280;57745;42.524;12.052;2023-12-07T02:50:05;96324.41;;;11.86;49.49
58367;BME280;57745;42.524;12.052;2023-12-07T02:52:31;96328.59;;;11.75;49.41
58367;BME280;57745;42.524;12.052;2023-12-07T02:54:56;96327.31;;;11.79;49.33
58367;BME280;57745;42.524;12.052;2023-12-07T02:57:22;96324.50;;;11.83;49.16
58367;BME280;57745;42.524;12.052;2023-12-07T02:59:47;96323.28;;;11.59;49.64
58367;BME280;57745;42.524;12.052;2023-12-07T03:02:13;96340.88;;;11.54;49.85
58367;BME280;57745;42.524;12.052;2023-12-07T03:04:38;96338.50;;;11.69;49.40
58367;BME280;57745;42.524;12.052;2023-12-07T03:07:05;96343.09;;;11.84;49.34
58367;BME280;57745;42.524;12.052;2023-12-07T03:09:32;96345.78;;;11.72;49.48
58367;BME280;57745;42.524;12.052;2023-12-07T03:11:58;96352.09;;;11.69;49.51
58367;BME280;57745;42.524;12.052;2023-12-07T03:14:24;96354.81;;;11.81;49.68
58367;BME280;57745;42.524;12.052;2023-12-07T03:16:49;96356.97;;;11.74;49.31
58367;BME280;57745;42.524;12.052;2023-12-07T03:19:15;96357.00;;;11.86;49.24
58367;BME280;57745;42.524;12.052;2023-12-07T03:21:41;96362.22;;;11.81;49.43
58367;BME280;57745;42.524;12.052;2023-12-07T03:24:08;96367.13;;;11.86;49.01
58367;BME280;57745;42.524;12.052;2023-12-07T03:26:34;96369.06;;;11.98;48.95
58367;BME280;57745;42.524;12.052;2023-12-07T03:29:00;96372.09;;;11.87;49.21
58367;BME280;57745;42.524;12.052;2023-12-07T03:31:30;96371.78;;;11.85;48.97
58367;BME280;57745;42.524;12.052;2023-12-07T03:33:56;96367.22;;;11.82;49.00
58367;BME280;57745;42.524;12.052;2023-12-07T03:36:22;96363.81;;;12.04;48.53
58367;BME280;57745;42.524;12.052;2023-12-07T03:38:48;96371.53;;;12.05;48.18
58367;BME280;57745;42.524;12.052;2023-12-07T03:41:14;96372.31;;;11.80;48.93
58367;BME280;57745;42.524;12.052;2023-12-07T03:43:41;96376.34;;;11.88;48.46
58367;BME280;57745;42.524;12.052;2023-12-07T03:46:07;96370.56;;;11.99;48.43
58367;BME280;57745;42.524;12.052;2023-12-07T03:48:34;96379.38;;;11.91;48.43
58367;BME280;57745;42.524;12.052;2023-12-07T03:51:00;96371.31;;;11.87;48.73
58367;BME280;57745;42.524;12.052;2023-12-07T03:53:26;96372.09;;;11.87;48.44
58367;BME280;57745;42.524;12.052;2023-12-07T03:55:52;96373.16;;;12.03;48.50
58367;BME280;57745;42.524;12.052;2023-12-07T03:58:17;96370.25;;;11.84;48.70
58367;BME280;57745;42.524;12.052;2023-12-07T04:00:44;96376.13;;;11.83;49.21
58367;BME280;57745;42.524;12.052;2023-12-07T04:03:09;96370.25;;;11.84;49.00
58367;BME280;57745;42.524;12.052;2023-12-07T04:05:35;96376.22;;;11.92;48.46
58367;BME280;57745;42.524;12.052;2023-12-07T04:08:00;96386.09;;;11.73;49.03
58367;BME280;57745;42.524;12.052;2023-12-07T04:10:26;96393.63;;;11.82;48.76
58367;BME280;57745;42.524;12.052;2023-12-07T04:12:51;96396.97;;;11.73;49.07
58367;BME280;57745;42.524;12.052;2023-12-07T04:15:21;96396.94;;;11.48;48.96
58367;BME280;57745;42.524;12.052;2023-12-07T04:17:46;96386.28;;;11.41;49.85
58367;BME280;57745;42.524;12.052;2023-12-07T04:20:14;96397.13;;;11.41;49.55
58367;BME280;57745;42.524;12.052;2023-12-07T04:22:41;96393.34;;;11.51;49.48
58367;BME280;57745;42.524;12.052;2023-12-07T04:25:08;96383.91;;;11.43;49.32
58367;BME280;57745;42.524;12.052;2023-12-07T04:27:34;96396.94;;;11.48;49.07
58367;BME280;57745;42.524;12.052;2023-12-07T04:29:59;96392.16;;;11.52;48.80
58367;BME280;57745;42.524;12.052;2023-12-07T04:32:25;96390.63;;;11.51;49.28
58367;BME280;57745;42.524;12.052;2023-12-07T04:34:51;96396.72;;;11.55;48.74
58367;BME280;57745;42.524;12.052;2023-12-07T04:37:17;96403.16;;;11.74;48.18
58367;BME280;57745;42.524;12.052;2023-12-07T04:39:42;96401.75;;;11.69;48.33
58367;BME280;57745;42.524;12.052;2023-12-07T04:42:08;96401.06;;;11.65;48.55
58367;BME280;57745;42.524;12.052;2023-12-07T04:44:33;96403.69;;;11.56;48.98
58367;BME280;57745;42.524;12.052;2023-12-07T04:46:59;96409.03;;;11.72;48.54
58367;BME280;57745;42.524;12.052;2023-12-07T04:49:26;96409.53;;;11.42;49.22
58367;BME280;57745;42.524;12.052;2023-12-07T04:51:52;96401.66;;;11.19;49.85
58367;BME280;57745;42.524;12.052;2023-12-07T04:54:17;96409.00;;;11.05;50.64
58367;BME280;57745;42.524;12.052;2023-12-07T04:56:42;96414.00;;;11.07;50.80
58367;BME280;57745;42.524;12.052;2023-12-07T04:59:09;96419.38;;;11.23;50.23
58367;BME280;57745;42.524;12.052;2023-12-07T05:01:38;96417.66;;;11.00;50.81
58367;BME280;57745;42.524;12.052;2023-12-07T05:04:04;96423.38;;;10.90;51.06
58367;BME280;57745;42.524;12.052;2023-12-07T05:06:30;96425.84;;;10.84;51.09
58367;BME280;57745;42.524;12.052;2023-12-07T05:08:56;96421.38;;;11.06;50.69
58367;BME280;57745;42.524;12.052;2023-12-07T05:11:22;96422.44;;;10.96;51.05
58367;BME280;57745;42.524;12.052;2023-12-07T05:13:47;96426.72;;;11.10;50.53
58367;BME280;57745;42.524;12.052;2023-12-07T05:16:13;96427.44;;;10.98;50.74
58367;BME280;57745;42.524;12.052;2023-12-07T05:18:38;96423.84;;;10.72;51.15
58367;BME280;57745;42.524;12.052;2023-12-07T05:21:04;96436.06;;;11.09;50.56
58367;BME280;57745;42.524;12.052;2023-12-07T05:23:30;96433.75;;;11.07;50.13
58367;BME280;57745;42.524;12.052;2023-12-07T05:25:55;96437.56;;;10.81;50.72
58367;BME280;57745;42.524;12.052;2023-12-07T05:28:21;96440.56;;;10.99;50.46
58367;BME280;57745;42.524;12.052;2023-12-07T05:30:46;96443.34;;;11.12;50.03
58367;BME280;57745;42.524;12.052;2023-12-07T05:33:12;96453.94;;;11.06;49.96
58367;BME280;57745;42.524;12.052;2023-12-07T05:35:38;96460.22;;;11.03;49.96
58367;BME280;57745;42.524;12.052;2023-12-07T05:38:03;96462.22;;;11.15;50.01
58367;BME280;57745;42.524;12.052;2023-12-07T05:40:29;96459.66;;;10.96;49.96
58367;BME280;57745;42.524;12.052;2023-12-07T05:42:55;96464.03;;;11.06;49.61
58367;BME280;57745;42.524;12.052;2023-12-07T05:45:20;96463.75;;;11.16;49.66
58367;BME280;57745;42.524;12.052;2023-12-07T05:47:46;96468.63;;;11.09;50.00
58367;BME280;57745;42.524;12.052;2023-12-07T05:50:11;96468.69;;;11.05;50.19
58367;BME280;57745;42.524;12.052;2023-12-07T05:52:37;96463.38;;;11.02;49.96
58367;BME280;57745;42.524;12.052;2023-12-07T05:55:04;96472.91;;;10.77;50.47
58367;BME280;57745;42.524;12.052;2023-12-07T05:57:30;96472.63;;;10.88;49.96
58367;BME280;57745;42.524;12.052;2023-12-07T05:59:56;96479.53;;;10.76;49.71
58367;BME280;57745;42.524;12.052;2023-12-07T06:02:21;96474.16;;;10.89;49.66
58367;BME280;57745;42.524;12.052;2023-12-07T06:04:47;96473.72;;;10.91;49.54
58367;BME280;57745;42.524;12.052;2023-12-07T06:07:12;96469.13;;;11.04;49.30
58367;BME280;57745;42.524;12.052;2023-12-07T06:09:38;96470.69;;;10.89;49.27
58367;BME280;57745;42.524;12.052;2023-12-07T06:12:03;96475.53;;;10.81;49.89
58367;BME280;57745;42.524;12.052;2023-12-07T06:14:29;96470.88;;;10.82;49.76
58367;BME280;57745;42.524;12.052;2023-12-07T06:16:54;96477.19;;;10.62;50.47
58367;BME280;57745;42.524;12.052;2023-12-07T06:19:20;96478.25;;;10.65;50.29
58367;BME280;57745;42.524;12.052;2023-12-07T06:21:46;96481.66;;;10.85;49.98
58367;BME280;57745;42.524;12.052;2023-12-07T06:24:12;96482.91;;;10.80;50.12
58367;BME280;57745;42.524;12.052;2023-12-07T06:26:39;96494.09;;;10.83;50.00
58367;BME280;57745;42.524;12.052;2023-12-07T06:29:05;96488.88;;;10.75;50.35
58367;BME280;57745;42.524;12.052;2023-12-07T06:31:33;96488.69;;;10.83;50.10
58367;BME280;57745;42.524;12.052;2023-12-07T06:33:58;96500.13;;;10.58;50.67
58367;BME280;57745;42.524;12.052;2023-12-07T06:36:26;96490.78;;;10.91;49.54
58367;BME280;57745;42.524;12.052;2023-12-07T06:38:52;96506.75;;;10.73;49.93
58367;BME280;57745;42.524;12.052;2023-12-07T06:41:18;96503.53;;;10.46;51.01
58367;BME280;57745;42.524;12.052;2023-12-07T06:43:44;96498.16;;;10.91;49.85
58367;BME280;57745;42.524;12.052;2023-12-07T06:46:14;96505.94;;;10.89;50.28
58367;BME280;57745;42.524;12.052;2023-12-07T06:48:41;96505.59;;;11.03;50.04
58367;BME280;57745;42.524;12.052;2023-12-07T06:51:06;96511.56;;;10.82;50.52
58367;BME280;57745;42.524;12.052;2023-12-07T06:53:33;96517.56;;;10.89;50.01
58367;BME280;57745;42.524;12.052;2023-12-07T06:55:58;96517.69;;;10.69;50.69
58367;BME280;57745;42.524;12.052;2023-12-07T06:58:24;96522.59;;;10.58;51.20
58367;BME280;57745;42.524;12.052;2023-12-07T07:00:50;96524.88;;;10.76;50.48
58367;BME280;57745;42.524;12.052;2023-12-07T07:03:16;96515.97;;;10.92;50.03
58367;BME280;57745;42.524;12.052;2023-12-07T07:05:42;96525.47;;;10.84;50.13
58367;BME280;57745;42.524;12.052;2023-12-07T07:08:07;96530.75;;;10.74;49.91
58367;BME280;57745;42.524;12.052;2023-12-07T07:10:34;96526.91;;;10.56;50.39
58367;BME280;57745;42.524;12.052;2023-12-07T07:13:03;96536.41;;;10.64;50.31
58367;BME280;57745;42.524;12.052;2023-12-07T07:15:30;96539.13;;;10.80;50.03
58367;BME280;57745;42.524;12.052;2023-12-07T07:17:56;96533.44;;;10.91;50.14
58367;BME280;57745;42.524;12.052;2023-12-07T07:20:21;96536.59;;;10.73;50.38
58367;BME280;57745;42.524;12.052;2023-12-07T07:22:47;96552.91;;;10.53;50.93
58367;BME280;57745;42.524;12.052;2023-12-07T07:25:13;96543.78;;;10.63;50.91
58367;BME280;57745;42.524;12.052;2023-12-07T07:27:41;96543.78;;;10.79;50.57
58367;BME280;57745;42.524;12.052;2023-12-07T07:30:06;96542.34;;;10.75;50.78
58367;BME280;57745;42.524;12.052;2023-12-07T07:32:33;96547.00;;;10.58;51.18
58367;BME280;57745;42.524;12.052;2023-12-07T07:34:59;96540.22;;;10.66;50.76
58367;BME280;57745;42.524;12.052;2023-12-07T07:37:25;96544.53;;;10.80;50.77
58367;BME280;57745;42.524;12.052;2023-12-07T07:39:50;96532.44;;;10.68;51.02
58367;BME280;57745;42.524;12.052;2023-12-07T07:42:15;96541.34;;;10.85;50.99
58367;BME280;57745;42.524;12.052;2023-12-07T07:44:42;96543.69;;;10.83;51.23
58367;BME280;57745;42.524;12.052;2023-12-07T07:47:07;96540.88;;;11.03;50.56
58367;BME280;57745;42.524;12.052;2023-12-07T07:49:33;96542.94;;;10.83;50.94
58367;BME280;57745;42.524;12.052;2023-12-07T07:51:59;96545.72;;;10.95;50.71
58367;BME280;57745;42.524;12.052;2023-12-07T07:54:24;96554.91;;;10.85;51.27
58367;BME280;57745;42.524;12.052;2023-12-07T07:56:50;96549.97;;;10.80;51.19
58367;BME280;57745;42.524;12.052;2023-12-07T07:59:16;96558.78;;;11.00;50.89
58367;BME280;57745;42.524;12.052;2023-12-07T08:01:41;96555.41;;;10.96;51.26
58367;BME280;57745;42.524;12.052;2023-12-07T08:04:06;96552.59;;;10.84;51.50
58367;BME280;57745;42.524;12.052;2023-12-07T08:06:32;96566.06;;;11.03;50.84
58367;BME280;57745;42.524;12.052;2023-12-07T08:08:59;96559.72;;;11.10;50.84
58367;BME280;57745;42.524;12.052;2023-12-07T08:11:24;96556.25;;;10.93;51.20
58367;BME280;57745;42.524;12.052;2023-12-07T08:13:50;96558.59;;;10.91;51.64
58367;BME280;57745;42.524;12.052;2023-12-07T08:16:15;96566.75;;;10.91;52.00
58367;BME280;57745;42.524;12.052;2023-12-07T08:18:41;96575.41;;;10.70;52.39
58367;BME280;57745;42.524;12.052;2023-12-07T08:21:06;96581.69;;;10.83;52.25
58367;BME280;57745;42.524;12.052;2023-12-07T08:23:34;96579.28;;;11.01;51.91
58367;BME280;57745;42.524;12.052;2023-12-07T08:26:00;96584.97;;;10.58;52.69
58367;BME280;57745;42.524;12.052;2023-12-07T08:28:26;96580.16;;;10.82;52.26
58367;BME280;57745;42.524;12.052;2023-12-07T08:30:52;96587.25;;;10.76;52.31
58367;BME280;57745;42.524;12.052;2023-12-07T08:33:17;96585.75;;;10.75;52.47
58367;BME280;57745;42.524;12.052;2023-12-07T08:35:43;96594.81;;;11.01;51.79
58367;BME280;57745;42.524;12.052;2023-12-07T08:38:08;96589.56;;;10.77;52.84
58367;BME280;57745;42.524;12.052;2023-12-07T08:40:34;96592.53;;;10.99;52.37
58367;BME280;57745;42.524;12.052;2023-12-07T08:42:59;96598.81;;;11.12;51.76
58367;BME280;57745;42.524;12.052;2023-12-07T08:45:24;96591.34;;;11.16;52.02
58367;BME280;57745;42.524;12.052;2023-12-07T08:47:50;96589.38;;;11.17;52.17
58367;BME280;57745;42.524;12.052;2023-12-07T08:50:15;96599.81;;;11.02;52.47
58367;BME280;57745;42.524;12.052;2023-12-07T08:52:41;96592.66;;;11.41;51.32
58367;BME280;57745;42.524;12.052;2023-12-07T08:55:07;96598.41;;;12.42;49.18
58367;BME280;57745;42.524;12.052;2023-12-07T08:57:32;96599.06;;;17.18;38.09
58367;BME280;57745;42.524;12.052;2023-12-07T08:59:58;96597.16;;;18.10;36.03
58367;BME280;57745;42.524;12.052;2023-12-07T09:02:24;96600.91;;;20.23;32.12
58367;BME280;57745;42.524;12.052;2023-12-07T09:04:50;96599.53;;;21.33;30.22
58367;BME280;57745;42.524;12.052;2023-12-07T09:07:17;96605.44;;;22.55;28.56
58367;BME280;57745;42.524;12.052;2023-12-07T09:09:43;96603.44;;;22.73;28.12
58367;BME280;57745;42.524;12.052;2023-12-07T09:12:13;96616.44;;;23.56;26.72
58367;BME280;57745;42.524;12.052;2023-12-07T09:14:40;96618.47;;;24.54;25.42
58367;BME280;57745;42.524;12.052;2023-12-07T09:17:05;96617.53;;;23.08;27.13
58367;BME280;57745;42.524;12.052;2023-12-07T09:19:31;96622.53;;;22.37;28.30
58367;BME280;57745;42.524;12.052;2023-12-07T09:21:56;96630.44;;;23.80;26.25
58367;BME280;57745;42.524;12.052;2023-12-07T09:24:21;96631.25;;;23.70;26.33
58367;BME280;57745;42.524;12.052;2023-12-07T09:26:47;96628.47;;;23.64;26.60
58367;BME280;57745;42.524;12.052;2023-12-07T09:29:14;96622.28;;;23.19;27.25
58367;BME280;57745;42.524;12.052;2023-12-07T09:31:39;96633.38;;;23.99;25.97
58367;BME280;57745;42.524;12.052;2023-12-07T09:34:04;96639.06;;;24.23;25.73
58367;BME280;57745;42.524;12.052;2023-12-07T09:36:30;96627.13;;;21.86;28.84
58367;BME280;57745;42.524;12.052;2023-12-07T09:38:55;96624.91;;;17.74;36.02
58367;BME280;57745;42.524;12.052;2023-12-07T09:41:22;96630.38;;;16.42;39.12
58367;BME280;57745;42.524;12.052;2023-12-07T09:43:48;96636.41;;;15.27;41.98
58367;BME280;57745;42.524;12.052;2023-12-07T09:46:15;96633.22;;;14.80;43.47
58367;BME280;57745;42.524;12.052;2023-12-07T09:48:42;96632.94;;;14.34;45.27
58367;BME280;57745;42.524;12.052;2023-12-07T09:51:09;96631.56;;;14.08;46.05
58367;BME280;57745;42.524;12.052;2023-12-07T09:53:38;96630.22;;;13.90;46.93
58367;BME280;57745;42.524;12.052;2023-12-07T09:56:05;96622.91;;;13.65;47.68
58367;BME280;57745;42.524;12.052;2023-12-07T09:58:31;96623.72;;;13.53;48.71
58367;BME280;57745;42.524;12.052;2023-12-07T10:00:56;96620.13;;;13.44;48.98
58367;BME280;57745;42.524;12.052;2023-12-07T10:03:23;96619.84;;;13.29;49.50
58367;BME280;57745;42.524;12.052;2023-12-07T10:05:59;96617.66;;;12.99;50.41
58367;BME280;57745;42.524;12.052;2023-12-07T10:08:31;96620.63;;;13.04;50.47
58367;BME280;57745;42.524;12.052;2023-12-07T10:11:03;96619.84;;;13.04;50.79
58367;BME280;57745;42.524;12.052;2023-12-07T10:13:31;96620.63;;;12.79;51.83
58367;BME280;57745;42.524;12.052;2023-12-07T10:16:13;96625.97;;;12.82;52.40
58367;BME280;57745;42.524;12.052;2023-12-07T10:18:49;96622.16;;;12.80;52.28
58367;BME280;57745;42.524;12.052;2023-12-07T10:21:31;96626.50;;;12.90;51.75
58367;BME280;57745;42.524;12.052;2023-12-07T10:27:20;96615.94;;;12.79;52.11
58367;BME280;57745;42.524;12.052;2023-12-07T10:29:49;96616.47;;;12.62;52.72
58367;BME280;57745;42.524;12.052;2023-12-07T10:32:21;96620.28;;;12.51;52.90
58367;BME280;57745;42.524;12.052;2023-12-07T10:35:44;96624.53;;;12.52;52.90
58367;BME280;57745;42.524;12.052;2023-12-07T10:41:35;96620.63;;;12.53;53.14
58367;BME280;57745;42.524;12.052;2023-12-07T10:44:16;96616.34;;;12.40;54.57
58367;BME280;57745;42.524;12.052;2023-12-07T10:46:50;96619.94;;;12.49;54.59
58367;BME280;57745;42.524;12.052;2023-12-07T10:49:39;96621.03;;;12.39;55.15
58367;BME280;57745;42.524;12.052;2023-12-07T10:53:15;96619.66;;;12.47;54.56
58367;BME280;57745;42.524;12.052;2023-12-07T10:56:39;96617.78;;;12.44;55.22
58367;BME280;57745;42.524;12.052;2023-12-07T10:59:10;96608.00;;;12.59;55.08
58367;BME280;57745;42.524;12.052;2023-12-07T11:01:42;96605.06;;;12.67;55.23
58367;BME280;57745;42.524;12.052;2023-12-07T11:04:13;96604.38;;;12.37;56.17
58367;BME280;57745;42.524;12.052;2023-12-07T11:06:46;96597.34;;;12.52;56.04
58367;BME280;57745;42.524;12.052;2023-12-07T11:09:32;96597.22;;;12.56;57.04
58367;BME280;57745;42.524;12.052;2023-12-07T11:12:20;96599.72;;;12.63;57.07
58367;BME280;57745;42.524;12.052;2023-12-07T11:14:59;96590.03;;;12.49;56.52
58367;BME280;57745;42.524;12.052;2023-12-07T11:17:28;96590.38;;;12.51;56.46
58367;BME280;57745;42.524;12.052;2023-12-07T11:19:54;96589.50;;;12.42;56.38
58367;BME280;57745;42.524;12.052;2023-12-07T11:22:40;96585.16;;;12.44;56.18
58367;BME280;57745;42.524;12.052;2023-12-07T11:25:28;96587.00;;;12.47;56.30
58367;BME280;57745;42.524;12.052;2023-12-07T11:28:02;96576.31;;;12.40;56.42
58367;BME280;57745;42.524;12.052;2023-12-07T11:30:35;96577.00;;;12.57;55.73
58367;BME280;57745;42.524;12.052;2023-12-07T11:33:05;96578.72;;;12.51;55.44
58367;BME280;57745;42.524;12.052;2023-12-07T11:35:32;96581.44;;;12.38;56.29
58367;BME280;57745;42.524;12.052;2023-12-07T11:38:07;96571.44;;;12.35;56.32
58367;BME280;57745;42.524;12.052;2023-12-07T11:40:43;96576.56;;;12.46;56.11
58367;BME280;57745;42.524;12.052;2023-12-07T11:43:42;96570.69;;;12.73;55.96
58367;BME280;57745;42.524;12.052;2023-12-07T11:46:12;96567.84;;;12.38;56.68
58367;BME280;57745;42.524;12.052;2023-12-07T11:48:39;96562.41;;;12.51;55.98
58367;BME280;57745;42.524;12.052;2023-12-07T11:51:12;96559.91;;;12.56;56.08
58367;BME280;57745;42.524;12.052;2023-12-07T11:53:38;96554.56;;;12.78;55.20
58367;BME280;57745;42.524;12.052;2023-12-07T11:56:05;96557.72;;;12.51;56.39
58367;BME280;57745;42.524;12.052;2023-12-07T11:58:32;96558.47;;;12.52;56.36
58367;BME280;57745;42.524;12.052;2023-12-07T12:00:58;96555.84;;;12.61;56.99
58367;BME280;57745;42.524;12.052;2023-12-07T12:03:26;96560.84;;;12.75;56.08
58367;BME280;57745;42.524;12.052;2023-12-07T12:05:54;96551.84;;;12.66;57.38
58367;BME280;57745;42.524;12.052;2023-12-07T12:08:22;96551.94;;;12.75;56.30
58367;BME280;57745;42.524;12.052;2023-12-07T12:10:49;96556.63;;;12.62;57.21
58367;BME280;57745;42.524;12.052;2023-12-07T12:13:16;96559.03;;;12.85;55.84
58367;BME280;57745;42.524;12.052;2023-12-07T12:15:42;96553.13;;;12.74;56.48
58367;BME280;57745;42.524;12.052;2023-12-07T12:18:09;96552.50;;;12.70;56.60
58367;BME280;57745;42.524;12.052;2023-12-07T12:20:39;96555.84;;;12.86;56.25
58367;BME280;57745;42.524;12.052;2023-12-07T12:23:06;96550.22;;;12.55;56.55
58367;BME280;57745;42.524;12.052;2023-12-07T12:25:37;96553.34;;;12.92;56.23
58367;BME280;57745;42.524;12.052;2023-12-07T12:28:06;96540.31;;;12.62;56.60
58367;BME280;57745;42.524;12.052;2023-12-07T12:30:33;96534.41;;;12.76;56.75
58367;BME280;57745;42.524;12.052;2023-12-07T12:33:01;96535.94;;;12.77;56.67
58367;BME280;57745;42.524;12.052;2023-12-07T12:35:28;96533.09;;;12.93;55.88
58367;BME280;57745;42.524;12.052;2023-12-07T12:37:56;96535.94;;;12.77;56.24
58367;BME280;57745;42.524;12.052;2023-12-07T12:40:23;96528.84;;;12.79;56.23
58367;BME280;57745;42.524;12.052;2023-12-07T12:42:51;96536.47;;;12.84;56.38
58367;BME280;57745;42.524;12.052;2023-12-07T12:45:17;96536.06;;;12.73;56.55
58367;BME280;57745;42.524;12.052;2023-12-07T12:47:46;96534.53;;;12.72;56.95
58367;BME280;57745;42.524;12.052;2023-12-07T12:50:34;96537.84;;;13.02;55.88
58367;BME280;57745;42.524;12.052;2023-12-07T12:53:04;96547.88;;;13.05;55.41
58367;BME280;57745;42.524;12.052;2023-12-07T12:55:35;96542.13;;;12.77;56.00
58367;BME280;57745;42.524;12.052;2023-12-07T12:58:01;96539.41;;;12.90;55.97
58367;BME280;57745;42.524;12.052;2023-12-07T13:00:31;96536.13;;;12.95;55.88
58367;BME280;57745;42.524;12.052;2023-12-07T13:03:04;96543.78;;;12.75;56.52